AAY979 KPIE-KJQF
Flight info
| Callsign | AAY979 |
|---|---|
| Flight time | 1h 14m |
| Altitude | 35000 |
| Route | BAYPO2 CAMJO HEPAR WANSA JOOLS1 |
| Aircraft | MD83/M-SDFGIRWY/S |
Departure
| Time | 2026-04-29 03:48 |
|---|---|
| Airport | St. Petersburg Clearwater International Airport (KPIE) |
Arrival
| Time | 2026-04-29 05:02 |
|---|---|
| Airport | Concord-Padgett Regional Airport (KJQF) |
| Time | Latitude | Longitude | Altitude | Speed | Heading |
|---|---|---|---|---|---|
| 2026-04-29 03:09 | 27.90750 | -82.69339 | 25 ft | 0 kts | 178° |
| 2026-04-29 03:39 | 27.90755 | -82.69339 | 25 ft | 4 kts | 180° |
| 2026-04-29 03:39 | 27.90780 | -82.69338 | 29 ft | 4 kts | 162° |
| 2026-04-29 03:40 | 27.90800 | -82.69348 | 25 ft | 4 kts | 150° |
| 2026-04-29 03:40 | 27.90820 | -82.69366 | 26 ft | 4 kts | 128° |
| 2026-04-29 03:40 | 27.90829 | -82.69389 | 30 ft | 3 kts | 90° |
| 2026-04-29 03:40 | 27.90829 | -82.69393 | 30 ft | 0 kts | 88° |
| 2026-04-29 03:42 | 27.90829 | -82.69386 | 25 ft | 2 kts | 88° |
| 2026-04-29 03:42 | 27.90830 | -82.69368 | 28 ft | 3 kts | 88° |
| 2026-04-29 03:43 | 27.90831 | -82.69334 | 25 ft | 6 kts | 88° |
| 2026-04-29 03:43 | 27.90832 | -82.69281 | 25 ft | 8 kts | 88° |
| 2026-04-29 03:43 | 27.90834 | -82.69211 | 25 ft | 10 kts | 88° |
| 2026-04-29 03:43 | 27.90836 | -82.69126 | 25 ft | 12 kts | 88° |
| 2026-04-29 03:44 | 27.90838 | -82.69028 | 25 ft | 13 kts | 88° |
| 2026-04-29 03:44 | 27.90901 | -82.68978 | 25 ft | 13 kts | 356° |
| 2026-04-29 03:44 | 27.90997 | -82.68997 | 24 ft | 15 kts | 354° |
| 2026-04-29 03:44 | 27.91109 | -82.69014 | 24 ft | 17 kts | 352° |
| 2026-04-29 03:45 | 27.91229 | -82.69034 | 24 ft | 18 kts | 351° |
| 2026-04-29 03:45 | 27.91357 | -82.69057 | 24 ft | 19 kts | 350° |
| 2026-04-29 03:45 | 27.91495 | -82.69081 | 24 ft | 21 kts | 352° |
| 2026-04-29 03:45 | 27.91640 | -82.69104 | 26 ft | 22 kts | 350° |
| 2026-04-29 03:46 | 27.91791 | -82.69133 | 25 ft | 22 kts | 352° |
| 2026-04-29 03:46 | 27.91945 | -82.69160 | 24 ft | 23 kts | 351° |
| 2026-04-29 03:46 | 27.92100 | -82.69188 | 24 ft | 23 kts | 351° |
| 2026-04-29 03:46 | 27.92257 | -82.69210 | 24 ft | 22 kts | 6° |
| 2026-04-29 03:47 | 27.92329 | -82.69081 | 23 ft | 20 kts | 94° |
| 2026-04-29 03:47 | 27.92291 | -82.69056 | 23 ft | 9 kts | 173° |
| 2026-04-29 03:47 | 27.92059 | -82.69021 | 25 ft | 61 kts | 171° |
| 2026-04-29 03:47 | 27.91423 | -82.68913 | 21 ft | 123 kts | 172° |
| 2026-04-29 03:48 | 27.90410 | -82.68722 | 70 ft | 169 kts | 171° |
| 2026-04-29 03:48 | 27.89632 | -82.68589 | 480 ft | 167 kts | 169° |
| 2026-04-29 03:48 | 27.88566 | -82.68376 | 1050 ft | 167 kts | 167° |
| 2026-04-29 03:48 | 27.87399 | -82.68200 | 1458 ft | 175 kts | 176° |
| 2026-04-29 03:49 | 27.86129 | -82.68254 | 1706 ft | 191 kts | 180° |
| 2026-04-29 03:49 | 27.84751 | -82.68404 | 1932 ft | 208 kts | 192° |
| 2026-04-29 03:49 | 27.83540 | -82.69386 | 2199 ft | 233 kts | 238° |
| 2026-04-29 03:49 | 27.83201 | -82.71222 | 2503 ft | 250 kts | 270° |
| 2026-04-29 03:50 | 27.83432 | -82.73177 | 3016 ft | 256 kts | 290° |
| 2026-04-29 03:50 | 27.84511 | -82.74784 | 3397 ft | 264 kts | 324° |
| 2026-04-29 03:50 | 27.86193 | -82.75624 | 3763 ft | 271 kts | 353° |
| 2026-04-29 03:50 | 27.88071 | -82.75443 | 4115 ft | 275 kts | 22° |
| 2026-04-29 03:51 | 27.89791 | -82.74471 | 4533 ft | 278 kts | 31° |
| 2026-04-29 03:51 | 27.91485 | -82.73378 | 4958 ft | 281 kts | 30° |
| 2026-04-29 03:51 | 27.93184 | -82.72289 | 5479 ft | 279 kts | 30° |
| 2026-04-29 03:51 | 27.94887 | -82.71214 | 6170 ft | 280 kts | 30° |
| 2026-04-29 03:52 | 27.96582 | -82.70174 | 7026 ft | 276 kts | 29° |
| 2026-04-29 03:52 | 27.98289 | -82.69166 | 7787 ft | 274 kts | 27° |
| 2026-04-29 03:52 | 27.99993 | -82.68192 | 8414 ft | 277 kts | 27° |
| 2026-04-29 03:52 | 28.01735 | -82.67223 | 9035 ft | 279 kts | 26° |
| 2026-04-29 03:53 | 28.03487 | -82.66271 | 9657 ft | 281 kts | 25° |
| 2026-04-29 03:53 | 28.05218 | -82.65341 | 10201 ft | 283 kts | 25° |
| 2026-04-29 03:53 | 28.07052 | -82.64363 | 10404 ft | 300 kts | 25° |
| 2026-04-29 03:53 | 28.08996 | -82.63332 | 10565 ft | 317 kts | 25° |
| 2026-04-29 03:54 | 28.11049 | -82.62245 | 10729 ft | 333 kts | 25° |
| 2026-04-29 03:54 | 28.13170 | -82.61119 | 10832 ft | 349 kts | 25° |
| 2026-04-29 03:54 | 28.15417 | -82.59922 | 10960 ft | 365 kts | 25° |
| 2026-04-29 03:54 | 28.17758 | -82.58666 | 11191 ft | 377 kts | 25° |
| 2026-04-29 03:55 | 28.20234 | -82.57661 | 11656 ft | 380 kts | 9° |
| 2026-04-29 03:55 | 28.22875 | -82.57546 | 12323 ft | 379 kts | 358° |
| 2026-04-29 03:55 | 28.25507 | -82.57732 | 12940 ft | 380 kts | 356° |
| 2026-04-29 03:55 | 28.28146 | -82.57956 | 13499 ft | 382 kts | 356° |
| 2026-04-29 03:56 | 28.30809 | -82.58190 | 14097 ft | 385 kts | 355° |
| 2026-04-29 03:56 | 28.33483 | -82.58420 | 14675 ft | 386 kts | 356° |
| 2026-04-29 03:56 | 28.36179 | -82.58633 | 15202 ft | 390 kts | 356° |
| 2026-04-29 03:56 | 28.38908 | -82.58827 | 15728 ft | 395 kts | 356° |
| 2026-04-29 03:57 | 28.41659 | -82.59005 | 16324 ft | 398 kts | 356° |
| 2026-04-29 03:57 | 28.44433 | -82.59174 | 16912 ft | 401 kts | 356° |
| 2026-04-29 03:57 | 28.47229 | -82.59338 | 17460 ft | 404 kts | 356° |
| 2026-04-29 03:57 | 28.50050 | -82.59502 | 18058 ft | 406 kts | 356° |
| 2026-04-29 03:58 | 28.52881 | -82.59671 | 18597 ft | 409 kts | 356° |
| 2026-04-29 03:58 | 28.55740 | -82.59845 | 19062 ft | 412 kts | 355° |
| 2026-04-29 03:58 | 28.58613 | -82.60023 | 19540 ft | 415 kts | 355° |
| 2026-04-29 03:58 | 28.61506 | -82.60202 | 20001 ft | 418 kts | 355° |
| 2026-04-29 03:59 | 28.64425 | -82.60384 | 20453 ft | 421 kts | 355° |
| 2026-04-29 03:59 | 28.67319 | -82.60565 | 20921 ft | 423 kts | 355° |
| 2026-04-29 03:59 | 28.70271 | -82.60749 | 21359 ft | 426 kts | 355° |
| 2026-04-29 03:59 | 28.73283 | -82.60937 | 21786 ft | 430 kts | 355° |
| 2026-04-29 04:00 | 28.76240 | -82.61121 | 22219 ft | 432 kts | 355° |
| 2026-04-29 04:00 | 28.79256 | -82.61308 | 22652 ft | 435 kts | 355° |
| 2026-04-29 04:00 | 28.82293 | -82.61497 | 23045 ft | 438 kts | 355° |
| 2026-04-29 04:00 | 28.85350 | -82.61688 | 23461 ft | 442 kts | 355° |
| 2026-04-29 04:01 | 28.88426 | -82.61880 | 23883 ft | 444 kts | 355° |
| 2026-04-29 04:01 | 28.91527 | -82.62076 | 24249 ft | 447 kts | 355° |
| 2026-04-29 04:01 | 28.94640 | -82.62273 | 24586 ft | 450 kts | 355° |
| 2026-04-29 04:01 | 28.97775 | -82.62471 | 24924 ft | 453 kts | 355° |
| 2026-04-29 04:02 | 29.00930 | -82.62669 | 25258 ft | 456 kts | 355° |
| 2026-04-29 04:02 | 29.04108 | -82.62868 | 25578 ft | 459 kts | 355° |
| 2026-04-29 04:02 | 29.07310 | -82.63068 | 25905 ft | 461 kts | 355° |
| 2026-04-29 04:02 | 29.10533 | -82.63270 | 26188 ft | 465 kts | 355° |
| 2026-04-29 04:03 | 29.13771 | -82.63473 | 26499 ft | 467 kts | 355° |
| 2026-04-29 04:03 | 29.17023 | -82.63677 | 26803 ft | 469 kts | 355° |
| 2026-04-29 04:03 | 29.20286 | -82.63882 | 27123 ft | 471 kts | 356° |
| 2026-04-29 04:03 | 29.23551 | -82.64087 | 27583 ft | 469 kts | 356° |
| 2026-04-29 04:04 | 29.26804 | -82.64291 | 28064 ft | 467 kts | 356° |
| 2026-04-29 04:04 | 29.30010 | -82.64494 | 28494 ft | 466 kts | 356° |
| 2026-04-29 04:04 | 29.33253 | -82.64698 | 28872 ft | 467 kts | 356° |
| 2026-04-29 04:04 | 29.36501 | -82.64900 | 29212 ft | 468 kts | 356° |
| 2026-04-29 04:05 | 29.39754 | -82.65102 | 29526 ft | 469 kts | 356° |
| 2026-04-29 04:05 | 29.43015 | -82.65307 | 29910 ft | 468 kts | 356° |
| 2026-04-29 04:05 | 29.46261 | -82.65514 | 30334 ft | 466 kts | 356° |
| 2026-04-29 04:05 | 29.49497 | -82.65719 | 30684 ft | 465 kts | 356° |
| 2026-04-29 04:06 | 29.52718 | -82.65923 | 31076 ft | 462 kts | 356° |
| 2026-04-29 04:06 | 29.55927 | -82.66125 | 31447 ft | 460 kts | 356° |
| 2026-04-29 04:06 | 29.59116 | -82.66326 | 31812 ft | 458 kts | 356° |
| 2026-04-29 04:06 | 29.62289 | -82.66527 | 32166 ft | 456 kts | 356° |
| 2026-04-29 04:07 | 29.65457 | -82.66725 | 32475 ft | 456 kts | 355° |
| 2026-04-29 04:07 | 29.68626 | -82.66924 | 32722 ft | 456 kts | 355° |
| 2026-04-29 04:07 | 29.71790 | -82.67127 | 33007 ft | 455 kts | 355° |
| 2026-04-29 04:07 | 29.74949 | -82.67331 | 33357 ft | 453 kts | 355° |
| 2026-04-29 04:08 | 29.78090 | -82.67533 | 33715 ft | 450 kts | 355° |
| 2026-04-29 04:08 | 29.81206 | -82.67732 | 34051 ft | 448 kts | 355° |
| 2026-04-29 04:08 | 29.84315 | -82.67931 | 34316 ft | 447 kts | 355° |
| 2026-04-29 04:08 | 29.87412 | -82.68128 | 34581 ft | 445 kts | 355° |
| 2026-04-29 04:09 | 29.90408 | -82.68318 | 34845 ft | 443 kts | 355° |
| 2026-04-29 04:09 | 29.93445 | -82.68506 | 34980 ft | 442 kts | 354° |
| 2026-04-29 04:09 | 29.99567 | -82.68891 | 35086 ft | 439 kts | 354° |
| 2026-04-29 04:10 | 30.05671 | -82.69018 | 35114 ft | 438 kts | 357° |
| 2026-04-29 04:10 | 30.11767 | -82.68919 | 35121 ft | 438 kts | 358° |
| 2026-04-29 04:11 | 30.17869 | -82.68831 | 35121 ft | 439 kts | 357° |
| 2026-04-29 04:11 | 30.23988 | -82.68772 | 35146 ft | 440 kts | 356° |
| 2026-04-29 04:12 | 30.30113 | -82.68745 | 35143 ft | 440 kts | 356° |
| 2026-04-29 04:12 | 30.36236 | -82.68725 | 35155 ft | 441 kts | 356° |
| 2026-04-29 04:13 | 30.42385 | -82.68692 | 35166 ft | 441 kts | 356° |
| 2026-04-29 04:13 | 30.48534 | -82.68653 | 35166 ft | 442 kts | 356° |
| 2026-04-29 04:14 | 30.54676 | -82.68014 | 35162 ft | 447 kts | 6° |
| 2026-04-29 04:14 | 30.60794 | -82.66598 | 35160 ft | 448 kts | 7° |
| 2026-04-29 04:15 | 30.66898 | -82.65190 | 35160 ft | 448 kts | 6° |
| 2026-04-29 04:15 | 30.73025 | -82.63862 | 35160 ft | 446 kts | 6° |
| 2026-04-29 04:16 | 30.79097 | -82.62594 | 35152 ft | 447 kts | 6° |
| 2026-04-29 04:16 | 30.85255 | -82.61299 | 35148 ft | 449 kts | 7° |
| 2026-04-29 04:17 | 30.91414 | -82.59978 | 35134 ft | 451 kts | 7° |
| 2026-04-29 04:17 | 30.97587 | -82.58651 | 35121 ft | 450 kts | 7° |
| 2026-04-29 04:18 | 31.03734 | -82.57331 | 35131 ft | 448 kts | 6° |
| 2026-04-29 04:18 | 31.09877 | -82.56024 | 35116 ft | 449 kts | 4° |
| 2026-04-29 04:19 | 31.16087 | -82.55078 | 35117 ft | 449 kts | 2° |
| 2026-04-29 04:19 | 31.22297 | -82.54245 | 35116 ft | 450 kts | 2° |
| 2026-04-29 04:20 | 31.28514 | -82.53356 | 35107 ft | 451 kts | 2° |
| 2026-04-29 04:20 | 31.34733 | -82.52417 | 35123 ft | 451 kts | 2° |
| 2026-04-29 04:21 | 31.40957 | -82.51475 | 35125 ft | 451 kts | 2° |
| 2026-04-29 04:21 | 31.47187 | -82.50543 | 35128 ft | 451 kts | 2° |
| 2026-04-29 04:22 | 31.53408 | -82.49612 | 35079 ft | 451 kts | 2° |
| 2026-04-29 04:22 | 31.59636 | -82.48674 | 35071 ft | 451 kts | 2° |
| 2026-04-29 04:23 | 31.65831 | -82.47739 | 35068 ft | 451 kts | 2° |
| 2026-04-29 04:23 | 31.72060 | -82.46804 | 35065 ft | 452 kts | 2° |
| 2026-04-29 04:24 | 31.78297 | -82.45866 | 35064 ft | 452 kts | 2° |
| 2026-04-29 04:24 | 31.84537 | -82.44925 | 35078 ft | 452 kts | 2° |
| 2026-04-29 04:25 | 31.90782 | -82.43977 | 35095 ft | 452 kts | 2° |
| 2026-04-29 04:25 | 31.97031 | -82.43032 | 35107 ft | 453 kts | 2° |
| 2026-04-29 04:26 | 32.03289 | -82.42084 | 35126 ft | 453 kts | 2° |
| 2026-04-29 04:26 | 32.09539 | -82.41136 | 35136 ft | 453 kts | 2° |
| 2026-04-29 04:27 | 32.15802 | -82.40185 | 35148 ft | 454 kts | 2° |
| 2026-04-29 04:27 | 32.22064 | -82.39231 | 35146 ft | 454 kts | 2° |
| 2026-04-29 04:28 | 32.28320 | -82.38277 | 35140 ft | 453 kts | 1° |
| 2026-04-29 04:28 | 32.34554 | -82.37327 | 35104 ft | 452 kts | 1° |
| 2026-04-29 04:29 | 32.40785 | -82.36375 | 35116 ft | 452 kts | 1° |
| 2026-04-29 04:29 | 32.47050 | -82.35418 | 35107 ft | 455 kts | 1° |
| 2026-04-29 04:30 | 32.53344 | -82.34455 | 35102 ft | 456 kts | 1° |
| 2026-04-29 04:31 | 32.62736 | -82.33013 | 35093 ft | 454 kts | 1° |
| 2026-04-29 04:31 | 32.68999 | -82.32046 | 35087 ft | 454 kts | 1° |
| 2026-04-29 04:32 | 32.75280 | -82.31082 | 35090 ft | 455 kts | 1° |
| 2026-04-29 04:32 | 32.80509 | -82.30278 | 35083 ft | 456 kts | 1° |
| 2026-04-29 04:33 | 32.86802 | -82.29307 | 35088 ft | 456 kts | 1° |
| 2026-04-29 04:33 | 32.93097 | -82.28333 | 35108 ft | 456 kts | 1° |
| 2026-04-29 04:34 | 32.99385 | -82.27350 | 35091 ft | 455 kts | 1° |
| 2026-04-29 04:34 | 33.05651 | -82.26385 | 35092 ft | 453 kts | 1° |
| 2026-04-29 04:35 | 33.11907 | -82.25421 | 35094 ft | 454 kts | 0° |
| 2026-04-29 04:35 | 33.18181 | -82.24449 | 35099 ft | 455 kts | 1° |
| 2026-04-29 04:36 | 33.24416 | -82.23476 | 35109 ft | 455 kts | 1° |
| 2026-04-29 04:36 | 33.30702 | -82.22494 | 35122 ft | 455 kts | 1° |
| 2026-04-29 04:37 | 33.36988 | -82.21513 | 35126 ft | 456 kts | 1° |
| 2026-04-29 04:37 | 33.43281 | -82.20531 | 35132 ft | 456 kts | 1° |
| 2026-04-29 04:38 | 33.49579 | -82.19535 | 35146 ft | 455 kts | 0° |
| 2026-04-29 04:38 | 33.55835 | -82.18557 | 35133 ft | 452 kts | 0° |
| 2026-04-29 04:39 | 33.62082 | -82.17590 | 35127 ft | 453 kts | 0° |
| 2026-04-29 04:39 | 33.68337 | -82.16622 | 35119 ft | 454 kts | 0° |
| 2026-04-29 04:40 | 33.74598 | -82.16013 | 35122 ft | 448 kts | 353° |
| 2026-04-29 04:40 | 33.80818 | -82.16025 | 35111 ft | 448 kts | 352° |
| 2026-04-29 04:41 | 33.87064 | -82.16042 | 35109 ft | 449 kts | 353° |
| 2026-04-29 04:41 | 33.93316 | -82.15969 | 35111 ft | 450 kts | 353° |
| 2026-04-29 04:42 | 33.99589 | -82.15851 | 35119 ft | 450 kts | 353° |
| 2026-04-29 04:42 | 34.05792 | -82.15736 | 35108 ft | 448 kts | 353° |
| 2026-04-29 04:43 | 34.12062 | -82.15640 | 35103 ft | 447 kts | 353° |
| 2026-04-29 04:43 | 34.18256 | -82.15551 | 35103 ft | 449 kts | 353° |
| 2026-04-29 04:43 | 34.21430 | -82.15283 | 35104 ft | 460 kts | 5° |
| 2026-04-29 04:44 | 34.24454 | -82.13994 | 35128 ft | 478 kts | 21° |
| 2026-04-29 04:44 | 34.27228 | -82.11566 | 35119 ft | 496 kts | 39° |
| 2026-04-29 04:44 | 34.29389 | -82.08317 | 35116 ft | 510 kts | 54° |
| 2026-04-29 04:45 | 34.32603 | -82.00580 | 35095 ft | 516 kts | 59° |
| 2026-04-29 04:45 | 34.35965 | -81.92926 | 35098 ft | 513 kts | 56° |
| 2026-04-29 04:46 | 34.39547 | -81.85477 | 35120 ft | 511 kts | 54° |
| 2026-04-29 04:46 | 34.43185 | -81.78103 | 35114 ft | 510 kts | 54° |
| 2026-04-29 04:47 | 34.46764 | -81.70741 | 35100 ft | 512 kts | 54° |
| 2026-04-29 04:47 | 34.50372 | -81.63234 | 35101 ft | 517 kts | 54° |
| 2026-04-29 04:48 | 34.53944 | -81.55747 | 34714 ft | 506 kts | 55° |
| 2026-04-29 04:48 | 34.55696 | -81.52074 | 34155 ft | 500 kts | 55° |
| 2026-04-29 04:48 | 34.57442 | -81.48429 | 33382 ft | 499 kts | 55° |
| 2026-04-29 04:48 | 34.59364 | -81.44969 | 32555 ft | 490 kts | 42° |
| 2026-04-29 04:49 | 34.61847 | -81.42226 | 31734 ft | 479 kts | 30° |
| 2026-04-29 04:49 | 34.64569 | -81.39932 | 30934 ft | 475 kts | 27° |
| 2026-04-29 04:49 | 34.67342 | -81.37752 | 30140 ft | 474 kts | 26° |
| 2026-04-29 04:49 | 34.70119 | -81.35592 | 29271 ft | 473 kts | 26° |
| 2026-04-29 04:50 | 34.72841 | -81.33450 | 28437 ft | 472 kts | 27° |
| 2026-04-29 04:50 | 34.75582 | -81.31259 | 27624 ft | 470 kts | 27° |
| 2026-04-29 04:50 | 34.78286 | -81.29057 | 26861 ft | 467 kts | 28° |
| 2026-04-29 04:50 | 34.81006 | -81.26813 | 26093 ft | 465 kts | 29° |
| 2026-04-29 04:51 | 34.83605 | -81.24511 | 25369 ft | 475 kts | 33° |
| 2026-04-29 04:51 | 34.86162 | -81.21916 | 24654 ft | 479 kts | 36° |
| 2026-04-29 04:51 | 34.88659 | -81.19237 | 23951 ft | 477 kts | 37° |
| 2026-04-29 04:51 | 34.91063 | -81.16618 | 23195 ft | 475 kts | 38° |
| 2026-04-29 04:52 | 34.93510 | -81.13938 | 22349 ft | 472 kts | 38° |
| 2026-04-29 04:52 | 34.95935 | -81.11268 | 21509 ft | 468 kts | 38° |
| 2026-04-29 04:52 | 34.98349 | -81.08613 | 20686 ft | 465 kts | 39° |
| 2026-04-29 04:52 | 35.00740 | -81.05987 | 19900 ft | 461 kts | 39° |
| 2026-04-29 04:53 | 35.03111 | -81.03387 | 19125 ft | 457 kts | 40° |
| 2026-04-29 04:53 | 35.05464 | -81.00808 | 18363 ft | 452 kts | 40° |
| 2026-04-29 04:53 | 35.07796 | -80.98254 | 17501 ft | 448 kts | 40° |
| 2026-04-29 04:53 | 35.10099 | -80.95728 | 16663 ft | 443 kts | 41° |
| 2026-04-29 04:54 | 35.12382 | -80.93225 | 15862 ft | 439 kts | 41° |
| 2026-04-29 04:54 | 35.14646 | -80.90744 | 15065 ft | 435 kts | 41° |
| 2026-04-29 04:54 | 35.16890 | -80.88282 | 14281 ft | 430 kts | 41° |
| 2026-04-29 04:54 | 35.19107 | -80.85848 | 13471 ft | 426 kts | 41° |
| 2026-04-29 04:55 | 35.21297 | -80.83440 | 12628 ft | 422 kts | 41° |
| 2026-04-29 04:55 | 35.23465 | -80.81050 | 11811 ft | 417 kts | 40° |
| 2026-04-29 04:55 | 35.25725 | -80.78967 | 11030 ft | 408 kts | 24° |
| 2026-04-29 04:55 | 35.28378 | -80.77998 | 10259 ft | 389 kts | 6° |
| 2026-04-29 04:56 | 35.30991 | -80.77565 | 9425 ft | 370 kts | 3° |
| 2026-04-29 04:56 | 35.33471 | -80.77212 | 8593 ft | 354 kts | 3° |
| 2026-04-29 04:56 | 35.35869 | -80.76908 | 7771 ft | 340 kts | 2° |
| 2026-04-29 04:56 | 35.38184 | -80.76652 | 6984 ft | 328 kts | 2° |
| 2026-04-29 04:57 | 35.40426 | -80.76434 | 6192 ft | 319 kts | 2° |
| 2026-04-29 04:57 | 35.42645 | -80.76253 | 5360 ft | 311 kts | 2° |
| 2026-04-29 04:57 | 35.44756 | -80.76104 | 4558 ft | 305 kts | 2° |
| 2026-04-29 04:57 | 35.46884 | -80.75975 | 3772 ft | 299 kts | 2° |
| 2026-04-29 04:58 | 35.48884 | -80.75873 | 3364 ft | 282 kts | 2° |
| 2026-04-29 04:58 | 35.50778 | -80.75789 | 3025 ft | 265 kts | 2° |
| 2026-04-29 04:58 | 35.52534 | -80.75324 | 2574 ft | 253 kts | 32° |
| 2026-04-29 04:58 | 35.53617 | -80.73781 | 2391 ft | 235 kts | 73° |
| 2026-04-29 04:59 | 35.53729 | -80.71864 | 2186 ft | 225 kts | 111° |
| 2026-04-29 04:59 | 35.52948 | -80.70310 | 2433 ft | 210 kts | 131° |
| 2026-04-29 04:59 | 35.51915 | -80.68945 | 2527 ft | 221 kts | 148° |
| 2026-04-29 04:59 | 35.50509 | -80.68403 | 2580 ft | 215 kts | 185° |
| 2026-04-29 05:00 | 35.49060 | -80.68597 | 2602 ft | 199 kts | 188° |
| 2026-04-29 05:00 | 35.47773 | -80.68827 | 2424 ft | 177 kts | 191° |
| 2026-04-29 05:00 | 35.46620 | -80.69096 | 2169 ft | 161 kts | 193° |
| 2026-04-29 05:00 | 35.45553 | -80.69344 | 1920 ft | 151 kts | 193° |
| 2026-04-29 05:01 | 35.44553 | -80.69584 | 1700 ft | 140 kts | 193° |
| 2026-04-29 05:01 | 35.43592 | -80.69812 | 1473 ft | 141 kts | 192° |
| 2026-04-29 05:01 | 35.42628 | -80.70038 | 1286 ft | 142 kts | 191° |
| 2026-04-29 05:01 | 35.41674 | -80.70264 | 1097 ft | 141 kts | 189° |
| 2026-04-29 05:02 | 35.40704 | -80.70475 | 893 ft | 142 kts | 190° |
| 2026-04-29 05:02 | 35.39725 | -80.70699 | 682 ft | 138 kts | 190° |
| 2026-04-29 05:02 | 35.38868 | -80.70893 | 661 ft | 107 kts | 191° |
| 2026-04-29 05:02 | 35.38326 | -80.71014 | 660 ft | 47 kts | 190° |
| 2026-04-29 05:03 | 35.38181 | -80.71049 | 661 ft | 13 kts | 204° |
| 2026-04-29 05:03 | 35.38160 | -80.71133 | 663 ft | 10 kts | 272° |
| 2026-04-29 05:03 | 35.38155 | -80.71175 | 664 ft | 1 kts | 236° |
| 2026-04-29 05:03 | 35.38146 | -80.71184 | 664 ft | 3 kts | 210° |
| 2026-04-29 05:04 | 35.38098 | -80.71206 | 664 ft | 2 kts | 212° |
| 2026-04-29 05:04 | 35.38092 | -80.71215 | 665 ft | 2 kts | 233° |
| 2026-04-29 05:04 | 35.38085 | -80.71248 | 667 ft | 0 kts | 264° |